Time;durP1;ratioP1;P1;durP2;ratioP2;P2;SDS_P1;SDS_P2;PMS_P1;PMS_P2;Temp;Humidity;BMP_temperature;BMP_pressure;BME280_temperature;BME280_humidity;BME280_pressure;Samples;Min_cycle;Max_cycle;Signal;HPM_P1;HPM_P2
2023/06/06 00:00:57;;;;;;;6.75;4.53;;;18.90;99.90;;;;;;4169923;28;20045;-61
2023/06/06 00:02:59;;;;;;;5.32;4.28;;;18.90;99.90;;;;;;4172805;28;20086;-61
2023/06/06 00:05:00;;;;;;;5.90;4.65;;;18.90;99.90;;;;;;4171659;28;20321;-61
2023/06/06 00:07:03;;;;;;;7.57;4.65;;;18.80;99.90;;;;;;4166554;28;20077;-62
2023/06/06 00:09:04;;;;;;;7.47;4.90;;;18.80;99.90;;;;;;4170012;28;20036;-61
2023/06/06 00:11:05;;;;;;;5.32;4.18;;;18.80;99.90;;;;;;4169905;28;20052;-61
2023/06/06 00:13:05;;;;;;;7.93;4.78;;;18.80;99.90;;;;;;4161861;28;20046;-61
2023/06/06 00:15:07;;;;;;;5.57;4.25;;;18.70;99.90;;;;;;4170392;28;20061;-61
2023/06/06 00:17:09;;;;;;;6.93;4.88;;;18.70;99.90;;;;;;4169580;28;20124;-61
2023/06/06 00:19:09;;;;;;;7.90;4.50;;;18.60;99.90;;;;;;4173152;28;20266;-61
2023/06/06 00:21:10;;;;;;;5.20;4.45;;;18.60;99.90;;;;;;4170138;28;20365;-61
2023/06/06 00:23:12;;;;;;;6.55;4.85;;;18.60;99.90;;;;;;4172330;28;20481;-61
2023/06/06 00:25:13;;;;;;;6.40;4.30;;;18.60;99.90;;;;;;4170681;28;20059;-61
2023/06/06 00:27:13;;;;;;;6.30;4.50;;;18.60;99.90;;;;;;4172432;28;20069;-61
2023/06/06 00:29:14;;;;;;;7.00;4.90;;;18.50;99.90;;;;;;4171747;28;20165;-61
2023/06/06 00:31:14;;;;;;;5.93;4.22;;;18.50;99.90;;;;;;4173353;28;20035;-61
2023/06/06 00:33:15;;;;;;;7.22;4.72;;;18.50;99.90;;;;;;4180948;28;20143;-61
2023/06/06 00:35:15;;;;;;;7.00;4.65;;;18.50;99.90;;;;;;4172583;28;20044;-61
2023/06/06 00:37:16;;;;;;;6.50;4.93;;;18.40;99.90;;;;;;4174184;28;20072;-61
2023/06/06 00:39:17;;;;;;;5.65;4.72;;;18.40;99.90;;;;;;4169579;28;21351;-61
2023/06/06 00:41:18;;;;;;;6.03;4.80;;;18.40;99.90;;;;;;4178875;28;20056;-61
2023/06/06 00:43:18;;;;;;;6.22;4.72;;;18.40;99.90;;;;;;4168980;28;20533;-61
2023/06/06 00:45:19;;;;;;;6.53;5.00;;;18.40;99.90;;;;;;4167872;28;20061;-62
2023/06/06 00:47:20;;;;;;;5.68;4.50;;;18.30;99.90;;;;;;4176587;28;20057;-62
2023/06/06 00:49:21;;;;;;;6.50;4.47;;;18.30;99.90;;;;;;4172943;28;20029;-61
2023/06/06 00:51:23;;;;;;;7.00;5.35;;;18.30;99.90;;;;;;4177270;28;20479;-61
2023/06/06 00:53:23;;;;;;;6.22;5.05;;;18.30;99.90;;;;;;4172116;28;20139;-61
2023/06/06 00:55:24;;;;;;;6.97;4.97;;;18.30;99.90;;;;;;4165516;28;20041;-61
2023/06/06 00:57:26;;;;;;;6.68;4.78;;;18.20;99.90;;;;;;4167771;28;20041;-61
2023/06/06 00:59:27;;;;;;;7.15;5.07;;;18.20;99.90;;;;;;4171809;28;20040;-60
2023/06/06 01:01:33;;;;;;;6.97;4.78;;;18.20;99.90;;;;;;4170743;28;20057;-61
2023/06/06 01:03:34;;;;;;;7.22;4.80;;;18.20;99.90;;;;;;4168910;28;20034;-63
2023/06/06 01:05:39;;;;;;;7.22;4.68;;;18.10;99.90;;;;;;4169392;28;20082;-61
2023/06/06 01:07:42;;;;;;;6.95;5.00;;;18.10;99.90;;;;;;4179035;28;20096;-61
2023/06/06 01:09:45;;;;;;;7.10;5.15;;;18.10;99.90;;;;;;4180087;28;20104;-61
2023/06/06 01:12:09;;;;;;;6.60;5.10;;;18.00;99.90;;;;;;4174563;28;20121;-61
2023/06/06 01:14:33;;;;;;;6.38;4.97;;;17.90;99.90;;;;;;4173228;28;20045;-61
2023/06/06 01:16:35;;;;;;;11.13;5.90;;;17.90;99.90;;;;;;4167870;28;20030;-61
2023/06/06 01:18:37;;;;;;;7.53;5.00;;;17.90;99.90;;;;;;4172304;28;20041;-62
2023/06/06 01:20:41;;;;;;;9.32;5.63;;;17.80;99.90;;;;;;4180706;28;20041;-61
2023/06/06 01:22:44;;;;;;;6.93;5.22;;;17.80;99.90;;;;;;4176863;28;20033;-61
2023/06/06 01:24:45;;;;;;;6.55;5.30;;;17.70;99.90;;;;;;4174057;28;20469;-61
2023/06/06 01:26:45;;;;;;;7.30;5.63;;;17.70;99.90;;;;;;4176165;28;20039;-61
2023/06/06 01:28:46;;;;;;;8.60;5.93;;;17.60;99.90;;;;;;4171811;28;20040;-61
2023/06/06 01:30:47;;;;;;;10.85;6.60;;;17.60;99.90;;;;;;4173436;28;20400;-61
2023/06/06 01:32:58;;;;;;;9.13;5.95;;;17.60;99.90;;;;;;4167266;28;20478;-60
2023/06/06 01:35:13;;;;;;;7.78;6.03;;;17.50;99.90;;;;;;4172160;28;20060;-61
2023/06/06 01:37:48;;;;;;;6.35;5.18;;;17.50;99.90;;;;;;4172258;28;20043;-61
2023/06/06 01:39:55;;;;;;;10.40;6.07;;;17.50;99.90;;;;;;4146780;28;20133;-61
2023/06/06 01:41:58;;;;;;;7.72;6.00;;;17.40;99.90;;;;;;4170539;28;20025;-61
2023/06/06 01:44:00;;;;;;;8.60;6.32;;;17.40;99.90;;;;;;4169802;28;20481;-61
2023/06/06 01:46:02;;;;;;;10.93;6.15;;;17.30;99.90;;;;;;4175842;28;20072;-60
2023/06/06 01:48:04;;;;;;;;;;;17.30;99.90;;;;;;4174998;28;20041;-61
2023/06/06 01:50:07;;;;;;;7.65;5.72;;;17.30;99.90;;;;;;4172410;28;20422;-61
2023/06/06 01:52:08;;;;;;;8.57;6.25;;;17.30;99.90;;;;;;4173810;28;20191;-61
2023/06/06 01:54:09;;;;;;;8.38;5.72;;;17.20;99.90;;;;;;4168297;28;20048;-61
2023/06/06 01:56:13;;;;;;;7.55;5.70;;;17.20;99.90;;;;;;4174018;28;20065;-61
2023/06/06 01:58:15;;;;;;;7.18;5.70;;;17.10;99.90;;;;;;4174866;28;20094;-61
2023/06/06 02:00:17;;;;;;;7.50;6.00;;;17.10;99.90;;;;;;4172664;28;20037;-60
2023/06/06 02:02:17;;;;;;;7.30;5.90;;;17.10;99.90;;;;;;4166081;28;20132;-61
2023/06/06 02:04:18;;;;;;;8.98;5.72;;;17.10;99.90;;;;;;4167900;28;20554;-61
2023/06/06 02:06:20;;;;;;;8.45;6.03;;;17.10;99.90;;;;;;4173823;28;20120;-61
2023/06/06 02:08:21;;;;;;;10.43;5.97;;;17.10;99.90;;;;;;4170344;28;20455;-62
2023/06/06 02:10:21;;;;;;;9.60;6.53;;;17.10;99.90;;;;;;4169338;28;20041;-61
2023/06/06 02:12:22;;;;;;;8.90;6.25;;;17.10;99.90;;;;;;4164843;28;20495;-61
2023/06/06 02:14:22;;;;;;;7.68;6.13;;;17.00;99.90;;;;;;4169530;28;20369;-61
2023/06/06 02:16:23;;;;;;;9.15;6.38;;;17.10;99.90;;;;;;4167803;28;20036;-61
2023/06/06 02:18:24;;;;;;;9.40;6.47;;;17.10;99.90;;;;;;4169791;28;20399;-61
2023/06/06 02:20:25;;;;;;;8.52;5.95;;;17.00;99.90;;;;;;4172554;28;20087;-61
2023/06/06 02:22:25;;;;;;;7.30;5.53;;;16.90;99.90;;;;;;4171674;28;20033;-60
2023/06/06 02:24:26;;;;;;;9.35;6.18;;;16.90;99.90;;;;;;4166735;28;20034;-61
2023/06/06 02:26:28;;;;;;;9.45;6.40;;;16.90;99.90;;;;;;4170044;28;20495;-61
2023/06/06 02:28:30;;;;;;;7.13;5.63;;;16.90;99.90;;;;;;4167996;28;20056;-61
2023/06/06 02:30:30;;;;;;;7.65;6.18;;;16.90;99.90;;;;;;4168963;28;20044;-60
2023/06/06 02:32:32;;;;;;;9.68;6.32;;;16.90;99.90;;;;;;4170831;28;20032;-61
2023/06/06 02:34:32;;;;;;;7.57;5.53;;;16.90;99.90;;;;;;4174226;28;20040;-61
2023/06/06 02:36:33;;;;;;;8.15;6.25;;;16.90;99.90;;;;;;4168637;28;20037;-61
2023/06/06 02:38:35;;;;;;;8.80;5.82;;;16.90;99.90;;;;;;4169370;28;20048;-61
2023/06/06 02:40:35;;;;;;;11.57;6.30;;;16.90;99.90;;;;;;4170153;28;20052;-61
2023/06/06 02:42:38;;;;;;;9.10;6.30;;;16.90;99.90;;;;;;4171891;28;20033;-61
2023/06/06 02:44:39;;;;;;;;;;;16.90;99.90;;;;;;4173317;28;20033;-60
2023/06/06 02:46:39;;;;;;;9.65;6.13;;;16.90;99.90;;;;;;4173711;28;19909;-61
2023/06/06 02:48:40;;;;;;;10.73;6.80;;;16.90;99.90;;;;;;4169902;28;20049;-61
2023/06/06 02:50:41;;;;;;;9.55;6.30;;;16.90;99.90;;;;;;4165405;28;20038;-61
2023/06/06 02:52:41;;;;;;;11.23;6.70;;;16.80;99.90;;;;;;4171045;28;20029;-60
2023/06/06 02:54:42;;;;;;;11.38;6.47;;;16.80;99.90;;;;;;4169852;28;20427;-61
2023/06/06 02:56:42;;;;;;;9.50;6.22;;;16.80;99.90;;;;;;4171485;28;20064;-61
2023/06/06 02:58:44;;;;;;;9.70;6.35;;;16.80;99.90;;;;;;4168640;28;20083;-61
2023/06/06 03:00:44;;;;;;;8.10;6.38;;;16.80;99.90;;;;;;4167253;28;20048;-61
2023/06/06 03:02:45;;;;;;;8.90;6.60;;;16.80;99.90;;;;;;4166800;28;20033;-61
2023/06/06 03:04:46;;;;;;;8.82;6.35;;;16.70;99.90;;;;;;4170348;28;20036;-61
2023/06/06 03:06:48;;;;;;;10.65;6.63;;;16.70;99.90;;;;;;4170053;28;20033;-61
2023/06/06 03:08:54;;;;;;;10.00;6.35;;;16.70;99.90;;;;;;4169704;28;20126;-60
2023/06/06 03:10:55;;;;;;;10.77;6.53;;;16.70;99.90;;;;;;4169213;28;20034;-60
2023/06/06 03:12:56;;;;;;;8.73;6.30;;;16.60;99.90;;;;;;4167166;28;20045;-61
2023/06/06 03:14:57;;;;;;;9.38;6.28;;;16.60;99.90;;;;;;4166402;28;20317;-61
2023/06/06 03:16:58;;;;;;;9.93;6.68;;;16.60;99.90;;;;;;4168595;28;20041;-61
2023/06/06 03:18:58;;;;;;;8.88;6.57;;;16.60;99.90;;;;;;4167269;28;20037;-61
2023/06/06 03:20:59;;;;;;;9.93;6.57;;;16.50;99.90;;;;;;4169602;28;20037;-60
2023/06/06 03:23:00;;;;;;;9.35;6.72;;;16.40;99.90;;;;;;4170921;28;20042;-61
2023/06/06 03:25:01;;;;;;;16.25;7.07;;;16.40;99.90;;;;;;4165053;28;20026;-61
2023/06/06 03:27:03;;;;;;;10.70;6.70;;;16.40;99.90;;;;;;4166985;28;20044;-60
2023/06/06 03:29:04;;;;;;;10.68;6.63;;;16.30;99.90;;;;;;4168842;28;20411;-61
2023/06/06 03:31:06;;;;;;;9.13;6.10;;;16.30;99.90;;;;;;4170903;28;20036;-61
2023/06/06 03:33:06;;;;;;;9.83;6.87;;;16.30;99.90;;;;;;4170058;28;20040;-61
2023/06/06 03:35:07;;;;;;;9.65;6.63;;;16.20;99.90;;;;;;4169804;28;20259;-61
2023/06/06 03:37:07;;;;;;;11.10;6.07;;;16.20;99.90;;;;;;4167937;28;20040;-61
2023/06/06 03:39:08;;;;;;;11.38;6.18;;;16.20;99.90;;;;;;4171558;28;20755;-60
2023/06/06 03:41:09;;;;;;;11.63;6.88;;;16.20;99.90;;;;;;4167965;28;20029;-60
2023/06/06 03:43:09;;;;;;;9.50;6.63;;;16.20;99.90;;;;;;4171212;28;20025;-61
2023/06/06 03:45:10;;;;;;;8.13;6.43;;;16.20;99.90;;;;;;4167168;28;20021;-61
2023/06/06 03:47:11;;;;;;;9.20;6.80;;;16.20;99.90;;;;;;4170431;28;20077;-60
2023/06/06 03:49:11;;;;;;;9.27;6.15;;;16.20;99.90;;;;;;4168156;28;20075;-62
2023/06/06 03:51:12;;;;;;;8.32;6.32;;;16.20;99.90;;;;;;4167096;28;20033;-61
2023/06/06 03:53:12;;;;;;;7.05;5.40;;;16.20;99.90;;;;;;4171236;28;20037;-61
2023/06/06 03:55:14;;;;;;;11.52;6.35;;;16.20;99.90;;;;;;4169754;28;20463;-60
2023/06/06 03:57:14;;;;;;;9.50;6.28;;;16.20;99.90;;;;;;4171476;28;20121;-61
2023/06/06 03:59:15;;;;;;;9.32;6.13;;;16.10;99.90;;;;;;4174108;28;20081;-61
2023/06/06 04:01:16;;;;;;;8.65;6.35;;;16.10;99.90;;;;;;4172694;28;20703;-61
2023/06/06 04:03:16;;;;;;;8.82;5.72;;;16.10;99.90;;;;;;4174037;28;20037;-61
2023/06/06 04:05:18;;;;;;;9.40;6.50;;;16.10;99.90;;;;;;4174180;28;20040;-61
2023/06/06 04:07:18;;;;;;;10.25;6.82;;;16.00;99.90;;;;;;4171415;28;20037;-60
2023/06/06 04:09:19;;;;;;;12.45;7.05;;;16.00;99.90;;;;;;4173741;28;20057;-61
2023/06/06 04:11:19;;;;;;;9.98;7.25;;;16.00;99.90;;;;;;4170591;28;20380;-60
2023/06/06 04:13:20;;;;;;;8.15;6.30;;;16.00;99.90;;;;;;4178358;28;20036;-60
2023/06/06 04:15:21;;;;;;;9.73;6.40;;;15.90;99.90;;;;;;4170103;28;20124;-61
2023/06/06 04:17:26;;;;;;;8.38;6.45;;;16.00;99.90;;;;;;4171145;28;20110;-61
2023/06/06 04:19:27;;;;;;;10.80;7.07;;;15.80;99.90;;;;;;4171181;28;20028;-60
2023/06/06 04:21:30;;;;;;;10.93;6.80;;;15.60;99.90;;;;;;4169711;28;20063;-60
2023/06/06 04:23:31;;;;;;;11.05;6.43;;;15.70;99.90;;;;;;4187508;28;20052;-61
2023/06/06 04:25:32;;;;;;;10.85;7.25;;;15.70;99.90;;;;;;4169655;28;20520;-61
2023/06/06 04:27:32;;;;;;;10.20;7.05;;;15.70;99.90;;;;;;4170756;28;20493;-61
2023/06/06 04:29:36;;;;;;;8.63;6.47;;;15.60;99.90;;;;;;4172338;28;20143;-61
2023/06/06 04:31:40;;;;;;;9.18;7.00;;;15.70;99.90;;;;;;4170251;28;20044;-61
2023/06/06 04:33:42;;;;;;;9.43;7.50;;;15.70;99.90;;;;;;4175291;28;20029;-61
2023/06/06 04:35:43;;;;;;;9.25;6.47;;;15.60;99.90;;;;;;4168336;28;20068;-61
2023/06/06 04:37:43;;;;;;;10.45;7.38;;;15.50;99.90;;;;;;4172016;28;20049;-61
2023/06/06 04:39:44;;;;;;;8.93;6.18;;;15.40;99.90;;;;;;4171352;28;20040;-60
2023/06/06 04:41:45;;;;;;;9.15;6.75;;;15.50;99.90;;;;;;4168812;28;20049;-61
2023/06/06 04:43:49;;;;;;;9.23;6.40;;;15.40;99.90;;;;;;4169480;28;20072;-61
2023/06/06 04:45:53;;;;;;;8.98;6.78;;;15.50;99.90;;;;;;4170746;28;20030;-61
2023/06/06 04:47:55;;;;;;;12.00;6.90;;;15.50;99.90;;;;;;4170325;28;20065;-63
2023/06/06 04:49:56;;;;;;;8.68;6.38;;;15.50;99.90;;;;;;4174435;28;20479;-61
2023/06/06 04:51:59;;;;;;;10.70;6.55;;;15.50;99.90;;;;;;4167988;28;20044;-61
2023/06/06 04:54:01;;;;;;;10.68;7.20;;;15.60;99.90;;;;;;4171983;28;20073;-60
2023/06/06 04:56:03;;;;;;;10.85;6.22;;;15.60;99.90;;;;;;4172163;28;20048;-61
2023/06/06 04:58:04;;;;;;;7.78;6.07;;;15.70;99.90;;;;;;4173639;28;20483;-60
2023/06/06 05:00:05;;;;;;;9.70;6.72;;;15.60;99.90;;;;;;4171629;28;20045;-61
2023/06/06 05:02:06;;;;;;;11.35;7.40;;;15.60;99.90;;;;;;4169964;28;20392;-61
2023/06/06 05:04:07;;;;;;;8.82;6.40;;;15.50;99.90;;;;;;4172436;28;20040;-61
2023/06/06 05:06:07;;;;;;;11.13;7.45;;;15.60;99.90;;;;;;4175812;28;20476;-61
2023/06/06 05:08:08;;;;;;;10.68;6.88;;;15.50;99.90;;;;;;4170159;28;20563;-61
2023/06/06 05:10:09;;;;;;;11.32;7.18;;;15.60;99.90;;;;;;4174010;28;20480;-62
2023/06/06 05:12:10;;;;;;;11.70;6.85;;;15.60;99.90;;;;;;4172322;28;20075;-61
2023/06/06 05:14:11;;;;;;;8.52;6.63;;;15.70;99.90;;;;;;4170681;28;20029;-61
2023/06/06 05:16:11;;;;;;;12.13;7.38;;;15.70;99.90;;;;;;4172062;28;20594;-61
2023/06/06 05:18:12;;;;;;;9.68;6.13;;;15.70;99.90;;;;;;4166167;28;20044;-60
2023/06/06 05:20:13;;;;;;;9.63;6.97;;;15.70;99.90;;;;;;4168765;28;20453;-62
2023/06/06 05:22:14;;;;;;;9.40;6.85;;;15.80;99.90;;;;;;4167436;28;20041;-61
2023/06/06 05:24:15;;;;;;;9.80;7.53;;;15.80;99.90;;;;;;4173601;28;20475;-60
2023/06/06 05:26:15;;;;;;;10.00;6.72;;;15.90;99.90;;;;;;4174267;28;20465;-60
2023/06/06 05:28:17;;;;;;;9.05;6.80;;;15.90;99.90;;;;;;4172370;28;20042;-60
2023/06/06 05:30:17;;;;;;;8.02;6.35;;;15.90;99.90;;;;;;4176361;28;20040;-62
2023/06/06 05:32:18;;;;;;;10.35;7.05;;;15.90;99.90;;;;;;4174810;28;20029;-61
2023/06/06 05:34:19;;;;;;;13.50;8.40;;;16.00;99.90;;;;;;4175085;28;20033;-61
2023/06/06 05:36:20;;;;;;;10.27;7.25;;;16.00;99.90;;;;;;4165066;28;20033;-61
2023/06/06 05:38:21;;;;;;;8.80;6.45;;;16.00;99.90;;;;;;4174601;28;20041;-63
2023/06/06 05:40:21;;;;;;;10.02;6.95;;;16.00;99.90;;;;;;4170882;28;20021;-62
2023/06/06 05:42:22;;;;;;;8.18;6.47;;;16.10;99.90;;;;;;4172956;28;20040;-62
2023/06/06 05:44:23;;;;;;;10.15;6.78;;;16.10;99.90;;;;;;4171736;28;20033;-62
2023/06/06 05:46:25;;;;;;;9.48;6.78;;;16.20;99.90;;;;;;4171684;28;20043;-66
2023/06/06 05:48:26;;;;;;;10.88;7.18;;;16.20;99.90;;;;;;4172737;28;20045;-64
2023/06/06 05:50:27;;;;;;;14.32;8.05;;;16.40;99.90;;;;;;4168747;28;20503;-63
2023/06/06 05:52:28;;;;;;;10.10;6.43;;;16.60;99.90;;;;;;4165275;28;20037;-61
2023/06/06 05:54:29;;;;;;;8.80;6.13;;;16.90;99.90;;;;;;4165350;28;20144;-63
2023/06/06 05:56:29;;;;;;;10.38;6.82;;;17.20;99.90;;;;;;4169915;28;20083;-63
2023/06/06 05:58:30;;;;;;;9.60;7.43;;;17.60;99.90;;;;;;4170437;28;20030;-63
2023/06/06 06:00:32;;;;;;;7.20;5.95;;;17.90;99.90;;;;;;4163762;28;20423;-63
2023/06/06 06:02:33;;;;;;;10.00;6.65;;;18.20;99.90;;;;;;4171468;28;20041;-63
2023/06/06 06:04:34;;;;;;;7.90;6.00;;;18.60;99.90;;;;;;4167533;28;20527;-63
2023/06/06 06:06:35;;;;;;;10.75;5.95;;;18.90;99.90;;;;;;4180475;28;20086;-63
2023/06/06 06:08:36;;;;;;;8.80;5.47;;;19.20;99.90;;;;;;4166636;28;20403;-63
2023/06/06 06:10:38;;;;;;;9.10;5.82;;;19.60;99.90;;;;;;4169901;28;20044;-63
2023/06/06 06:12:38;;;;;;;10.88;6.32;;;19.90;99.90;;;;;;4170508;28;20041;-64
2023/06/06 06:14:39;;;;;;;10.88;5.78;;;20.10;99.90;;;;;;4167614;28;20034;-63
2023/06/06 06:16:39;;;;;;;7.38;5.68;;;20.40;99.90;;;;;;4165642;28;20084;-63
2023/06/06 06:18:40;;;;;;;8.80;5.55;;;20.70;99.90;;;;;;4171019;28;20029;-62
2023/06/06 06:20:41;;;;;;;10.00;5.00;;;20.80;99.80;;;;;;4167163;28;20112;-64
2023/06/06 06:22:41;;;;;;;9.75;5.70;;;21.10;99.90;;;;;;4173376;28;20041;-63
2023/06/06 06:24:42;;;;;;;6.25;5.53;;;21.10;99.50;;;;;;4166744;28;20029;-64
2023/06/06 06:26:42;;;;;;;7.10;4.80;;;21.20;98.50;;;;;;4168711;28;20032;-64
2023/06/06 06:28:43;;;;;;;7.18;5.13;;;21.40;99.50;;;;;;4170649;28;20099;-64
2023/06/06 06:30:44;;;;;;;10.00;5.43;;;21.60;98.90;;;;;;4175240;28;20037;-64
2023/06/06 06:32:45;;;;;;;6.97;4.70;;;21.60;98.50;;;;;;4173412;28;20076;-64
2023/06/06 06:34:45;;;;;;;9.65;5.57;;;21.60;98.30;;;;;;4163020;28;20040;-64
2023/06/06 06:36:47;;;;;;;7.10;4.90;;;21.70;97.10;;;;;;4172846;28;20053;-64
2023/06/06 06:38:47;;;;;;;5.78;4.53;;;21.70;96.30;;;;;;4172905;28;20056;-64
2023/06/06 06:40:48;;;;;;;6.82;4.70;;;21.80;97.80;;;;;;4167855;28;20056;-65
2023/06/06 06:42:48;;;;;;;7.53;5.25;;;21.80;96.00;;;;;;4166825;28;20037;-65
2023/06/06 06:44:50;;;;;;;6.60;4.82;;;21.90;96.20;;;;;;4173200;28;20090;-65
2023/06/06 06:46:50;;;;;;;7.35;4.93;;;21.90;96.70;;;;;;4161457;28;20033;-65
2023/06/06 06:48:51;;;;;;;8.05;5.60;;;21.90;97.40;;;;;;4168500;28;20032;-65
2023/06/06 06:50:52;;;;;;;7.93;5.20;;;22.00;97.30;;;;;;4170201;28;20079;-63
2023/06/06 06:52:53;;;;;;;6.25;4.68;;;21.90;96.10;;;;;;4167927;28;20388;-64
2023/06/06 06:54:57;;;;;;;8.32;5.68;;;22.00;96.60;;;;;;4169277;28;20041;-64
2023/06/06 06:56:57;;;;;;;6.22;4.50;;;21.80;96.10;;;;;;4166857;28;20925;-64
2023/06/06 06:58:58;;;;;;;7.50;5.07;;;21.70;95.20;;;;;;4172328;28;20033;-64
2023/06/06 07:00:59;;;;;;;7.40;5.03;;;21.90;97.10;;;;;;4165624;28;20030;-65
2023/06/06 07:03:03;;;;;;;7.40;4.68;;;21.90;96.30;;;;;;4168574;28;20045;-64
2023/06/06 07:05:05;;;;;;;8.90;4.78;;;21.90;96.10;;;;;;4167016;28;20037;-66
2023/06/06 07:07:07;;;;;;;6.32;4.75;;;22.00;96.70;;;;;;4169829;28;20091;-64
2023/06/06 07:09:07;;;;;;;8.90;5.35;;;22.00;97.10;;;;;;4172155;28;20752;-63
2023/06/06 07:11:09;;;;;;;8.05;5.40;;;22.00;96.60;;;;;;4169029;28;20114;-64
2023/06/06 07:13:13;;;;;;;7.90;5.20;;;22.20;97.00;;;;;;4167387;28;20033;-65
2023/06/06 07:15:14;;;;;;;5.82;4.70;;;22.20;96.20;;;;;;4164633;28;20654;-64
2023/06/06 07:17:17;;;;;;;7.07;4.72;;;22.30;96.50;;;;;;4164310;28;20033;-65
2023/06/06 07:19:18;;;;;;;8.32;4.82;;;22.30;95.90;;;;;;4169649;28;20037;-64
2023/06/06 07:21:22;;;;;;;8.10;5.38;;;22.40;96.30;;;;;;4156687;28;20048;-65
2023/06/06 07:23:23;;;;;;;7.00;5.60;;;22.50;96.70;;;;;;4164584;28;20052;-65
2023/06/06 07:25:24;;;;;;;8.48;5.30;;;22.60;96.30;;;;;;4164869;28;20037;-65
2023/06/06 07:27:25;;;;;;;7.05;4.93;;;22.70;96.10;;;;;;4165891;28;20033;-65
2023/06/06 07:29:27;;;;;;;5.28;4.22;;;22.70;95.80;;;;;;4163253;28;20041;-66
2023/06/06 07:31:28;;;;;;;7.25;5.20;;;22.80;95.80;;;;;;4167147;28;20029;-64
2023/06/06 07:33:28;;;;;;;7.72;5.68;;;22.80;95.80;;;;;;4163820;28;20068;-65
2023/06/06 07:35:32;;;;;;;9.38;5.30;;;22.50;94.80;;;;;;4165449;28;20033;-64
2023/06/06 07:37:34;;;;;;;9.65;4.78;;;22.60;95.80;;;;;;4169460;28;20479;-64
2023/06/06 07:39:34;;;;;;;9.50;5.90;;;22.50;94.80;;;;;;4163498;28;20033;-64
2023/06/06 07:41:35;;;;;;;10.40;5.72;;;22.60;95.70;;;;;;4166064;28;20108;-64
2023/06/06 07:43:35;;;;;;;7.55;5.13;;;22.60;95.60;;;;;;4161611;28;20041;-64
2023/06/06 07:45:36;;;;;;;9.18;5.85;;;22.50;95.40;;;;;;4165521;28;20472;-65
2023/06/06 07:47:38;;;;;;;7.75;5.53;;;22.30;94.80;;;;;;4161292;28;20053;-64
2023/06/06 07:49:41;;;;;;;8.43;4.90;;;22.20;96.40;;;;;;4163250;28;21052;-64
2023/06/06 07:51:41;;;;;;;6.50;4.65;;;22.40;96.40;;;;;;4160557;28;20774;-64
2023/06/06 07:53:44;;;;;;;6.35;4.90;;;22.50;96.40;;;;;;4163452;28;20045;-64
2023/06/06 07:55:45;;;;;;;7.63;5.45;;;22.50;95.90;;;;;;4161405;28;20090;-64
2023/06/06 07:57:45;;;;;;;7.95;5.68;;;22.70;95.90;;;;;;4165519;28;20489;-64
2023/06/06 07:59:46;;;;;;;10.00;5.63;;;22.80;95.70;;;;;;4167784;28;20148;-64
2023/06/06 08:01:47;;;;;;;7.65;4.75;;;22.90;96.00;;;;;;4163352;28;20045;-64
2023/06/06 08:03:50;;;;;;;9.48;4.60;;;22.90;95.50;;;;;;4161260;28;20052;-64
2023/06/06 08:05:51;;;;;;;7.43;5.43;;;23.00;95.50;;;;;;4154704;28;20048;-65
2023/06/06 08:07:53;;;;;;;7.80;4.97;;;23.00;95.40;;;;;;4146651;28;20034;-64
2023/06/06 08:09:53;;;;;;;8.35;5.28;;;23.10;95.60;;;;;;4162144;28;20033;-64
2023/06/06 08:11:54;;;;;;;5.68;4.82;;;23.10;94.70;;;;;;4162356;28;20040;-65
2023/06/06 08:13:55;;;;;;;7.30;4.95;;;23.20;95.30;;;;;;4164912;28;20038;-64
2023/06/06 08:15:55;;;;;;;6.75;5.68;;;23.20;94.10;;;;;;4160933;28;20113;-64
2023/06/06 08:17:56;;;;;;;11.77;6.18;;;23.20;94.50;;;;;;4166980;28;20039;-66
2023/06/06 08:19:57;;;;;;;7.95;5.07;;;22.90;94.10;;;;;;4157166;28;20034;-65
2023/06/06 08:21:58;;;;;;;10.30;7.20;;;23.00;95.60;;;;;;4163748;28;20068;-65
2023/06/06 08:23:58;;;;;;;8.93;6.03;;;22.60;94.20;;;;;;4151829;28;20034;-65
2023/06/06 08:25:59;;;;;;;8.20;5.38;;;22.40;94.90;;;;;;4146881;28;20057;-65
2023/06/06 08:28:00;;;;;;;6.57;5.00;;;22.40;95.50;;;;;;4163297;28;20081;-64
2023/06/06 08:30:02;;;;;;;6.93;4.90;;;22.60;96.40;;;;;;4163377;28;20077;-65
2023/06/06 08:32:04;;;;;;;7.70;4.97;;;22.80;96.40;;;;;;4159397;28;20113;-64
2023/06/06 08:34:04;;;;;;;9.25;6.25;;;22.90;96.00;;;;;;4149189;28;20112;-64
2023/06/06 08:36:06;;;;;;;7.82;5.55;;;22.80;94.30;;;;;;4148029;28;20064;-64
2023/06/06 08:38:07;;;;;;;6.72;5.03;;;22.80;95.00;;;;;;4160879;28;20496;-64
2023/06/06 08:40:09;;;;;;;9.93;5.65;;;22.90;96.30;;;;;;4166409;28;20044;-65
2023/06/06 08:42:11;;;;;;;8.85;5.93;;;22.90;95.10;;;;;;4157448;28;20053;-64
2023/06/06 08:44:12;;;;;;;7.63;5.43;;;23.00;95.20;;;;;;4166479;28;20547;-64
2023/06/06 08:46:15;;;;;;;8.05;5.43;;;23.10;96.00;;;;;;4164705;28;20378;-64
2023/06/06 08:48:17;;;;;;;8.25;5.60;;;23.30;96.30;;;;;;4165619;28;20054;-64
2023/06/06 08:50:21;;;;;;;7.40;5.03;;;23.40;95.80;;;;;;4160802;28;20036;-65
2023/06/06 08:52:23;;;;;;;9.15;5.30;;;23.60;96.20;;;;;;4161313;28;20037;-65
2023/06/06 08:54:25;;;;;;;12.75;6.88;;;23.70;95.60;;;;;;4166360;28;20422;-65
2023/06/06 08:56:27;;;;;;;11.75;6.60;;;23.80;95.30;;;;;;4161508;28;20037;-64
2023/06/06 08:58:30;;;;;;;6.93;4.80;;;23.90;95.50;;;;;;4163493;28;20091;-64
2023/06/06 09:00:30;;;;;;;7.88;5.50;;;23.90;95.30;;;;;;4164385;28;20039;-65
2023/06/06 09:02:31;;;;;;;9.98;5.30;;;24.00;95.40;;;;;;4166152;28;20317;-65
2023/06/06 09:04:35;;;;;;;9.65;5.20;;;24.10;95.20;;;;;;4164788;28;20320;-65
2023/06/06 09:06:43;;;;;;;8.68;5.35;;;24.10;94.30;;;;;;4161360;28;20033;-65
2023/06/06 09:08:46;;;;;;;7.32;4.85;;;24.20;94.60;;;;;;4166280;28;20385;-64
2023/06/06 09:10:47;;;;;;;8.07;5.30;;;24.30;94.70;;;;;;4162262;28;20037;-64
2023/06/06 09:12:48;;;;;;;8.68;5.10;;;24.40;94.70;;;;;;4165522;28;21067;-64
2023/06/06 09:14:48;;;;;;;7.55;5.15;;;24.50;94.60;;;;;;4162998;28;20114;-64
2023/06/06 09:16:51;;;;;;;6.75;4.53;;;24.50;94.00;;;;;;4167190;28;20088;-65
2023/06/06 09:18:55;;;;;;;8.27;5.40;;;24.50;94.00;;;;;;4169004;28;20404;-65
2023/06/06 09:20:56;;;;;;;7.78;5.47;;;24.70;93.90;;;;;;4165578;28;20048;-65
2023/06/06 09:23:00;;;;;;;7.63;4.90;;;24.70;94.00;;;;;;4166322;28;20361;-65
2023/06/06 09:25:01;;;;;;;8.85;4.85;;;24.70;94.50;;;;;;4161303;28;20920;-65
2023/06/06 09:27:02;;;;;;;7.53;4.80;;;24.80;93.80;;;;;;4161583;28;20037;-65
2023/06/06 09:29:13;;;;;;;6.95;4.50;;;24.70;92.90;;;;;;4164975;28;20124;-64
2023/06/06 09:31:29;;;;;;;7.63;5.05;;;24.70;93.50;;;;;;4165757;28;20041;-64
2023/06/06 09:33:32;;;;;;;9.32;5.70;;;24.90;93.80;;;;;;4164973;28;20064;-64
2023/06/06 09:35:34;;;;;;;7.47;4.70;;;24.90;93.80;;;;;;4158115;28;20471;-65
2023/06/06 09:37:38;;;;;;;8.23;5.10;;;24.90;93.40;;;;;;4163762;28;20372;-65
2023/06/06 09:39:39;;;;;;;8.55;4.60;;;24.90;93.80;;;;;;4163525;28;20045;-64
2023/06/06 09:41:45;;;;;;;10.23;4.80;;;25.00;94.20;;;;;;4161793;28;20033;-65
2023/06/06 09:43:46;;;;;;;7.22;4.32;;;25.10;93.80;;;;;;4165669;28;20071;-65
2023/06/06 09:45:51;;;;;;;6.43;4.60;;;25.10;93.40;;;;;;4161473;28;20672;-64
2023/06/06 09:47:52;;;;;;;8.45;5.10;;;25.30;93.40;;;;;;4159663;28;20053;-65
2023/06/06 09:49:55;;;;;;;5.50;4.15;;;25.30;93.20;;;;;;4160942;28;20052;-65
2023/06/06 09:51:56;;;;;;;7.28;4.43;;;25.40;93.40;;;;;;4162250;28;20026;-65
2023/06/06 09:54:00;;;;;;;7.38;4.03;;;25.40;93.70;;;;;;4164314;28;20400;-65
2023/06/06 09:56:03;;;;;;;4.93;3.67;;;25.50;93.50;;;;;;4162474;28;20045;-64
2023/06/06 09:58:06;;;;;;;9.02;5.22;;;25.60;92.90;;;;;;4165141;28;20045;-65
2023/06/06 10:00:14;;;;;;;7.40;4.60;;;25.60;92.90;;;;;;4166744;28;20040;-65
2023/06/06 10:02:19;;;;;;;7.40;4.28;;;25.70;93.10;;;;;;4164536;28;20141;-65
2023/06/06 10:04:20;;;;;;;9.48;4.80;;;25.70;93.20;;;;;;4163336;28;20484;-64
2023/06/06 10:06:21;;;;;;;6.32;4.78;;;25.70;92.60;;;;;;4167692;28;20050;-64
2023/06/06 10:08:23;;;;;;;5.90;3.78;;;25.80;92.90;;;;;;4162658;28;20039;-65
2023/06/06 10:10:24;;;;;;;6.15;4.30;;;25.70;92.80;;;;;;4165045;28;20037;-65
2023/06/06 10:12:30;;;;;;;7.63;4.05;;;25.80;92.40;;;;;;4165197;28;20544;-65
2023/06/06 10:14:30;;;;;;;8.48;4.57;;;25.80;92.70;;;;;;4163564;28;20055;-65
2023/06/06 10:16:34;;;;;;;7.63;3.92;;;25.80;92.30;;;;;;4162682;28;20037;-65
2023/06/06 10:18:35;;;;;;;7.63;4.60;;;25.90;92.60;;;;;;4164884;28;20097;-65
2023/06/06 10:20:38;;;;;;;8.05;5.30;;;25.90;92.30;;;;;;4161582;28;20748;-65
2023/06/06 10:22:40;;;;;;;6.97;4.75;;;25.70;90.60;;;;;;4164295;28;20041;-65
2023/06/06 10:24:41;;;;;;;7.78;4.75;;;25.70;91.40;;;;;;4165080;28;21032;-65
2023/06/06 10:27:04;;;;;;;9.82;5.78;;;25.80;93.00;;;;;;4160305;28;20038;-65
2023/06/06 10:29:16;;;;;;;7.68;3.95;;;25.80;92.20;;;;;;4166029;28;20032;-65
2023/06/06 10:31:36;;;;;;;5.60;3.75;;;25.80;91.40;;;;;;4161924;28;20033;-65
2023/06/06 10:33:44;;;;;;;5.75;3.80;;;25.80;92.50;;;;;;4162935;28;20046;-65